首页
METAR-TAF:

METAR-TAF

机场 :

Dinard, 法国

纬度: 48-35N, 经度: 002-04W, 海拔: 65米

当前天气观测

该预报发布于43分钟前的01:30 UTC
风速4节,风向
温度 3°C
湿度 93%
气压 1008 hPa
能見度: 8000
阴天层高于4700英尺

METAR: LFRD 170130Z AUTO 19004KT 8000 OVC047 03/02 Q1008 TEMPO 0500 FG VV///

时间: 03:13 (02:13 UTC)

预报

该预报发布于1小时和11分钟前的01:02 UTC
预报有效从17日的 01点(UTC)到 17日的 24点(UTC)
风速3节,风向多变
能見度: 6000
散云层高于3000英尺
短暂存在
从 17日的 01点(UTC)到 17日的 10点(UTC)
能見度: 3000
多云层高于300英尺
轻雾
几率 30% :
短暂存在
从 17日的 01点(UTC)到 17日的 09点(UTC)
能見度: 0500
成为
从 17日的 09点(UTC)到 17日的 11点(UTC)
能见度10公里或以上
短暂存在
从 17日的 10点(UTC)到 17日的 18点(UTC)
多云层高于1000英尺
成为
从 17日的 18点(UTC)到 17日的 20点(UTC)
能見度: 3000
轻雾
短暂存在
从 17日的 22点(UTC)到 17日的 24点(UTC)
多云层高于300英尺
几率 40% :
短暂存在
从 17日的 22点(UTC)到 17日的 24点(UTC)
能見度: 0500
几率 30% :
短暂存在
从 17日的 22点(UTC)到 17日的 24点(UTC)
能見度: 5000
阵雨

TAF: LFRD 170102Z 1701/1724 VRB03KT 6000 SCT030 TEMPO 1701/1710 3000 BR BKN003 PROB30 TEMPO 1701/1709 0500 FG VV/// BECMG 1709/1711 9999 NSW TEMPO 1710/1718 BKN010 BECMG 1718/1720 3000 BR TEMPO 1722/1724 BKN003 PROB40 TEMPO 1722/1724 0500 FG VV/// PROB30 TEMPO 1722/1724 5000 SHRA

超过4000个机场的气象观测和天气预报(METAR&TAF报告)。

可查询的气象台以黄色和红色小点在地图上表示。

将鼠标移到小点上方,可查看气象台名称。

然后点击查看天气观测和预报。

如需切换地图:点击带黑十字的绿色按钮放大地图;点击带横线的绿色按钮缩小地图;或者点击绿色箭头查看邻近地区的地图。


METAR-TAF: